Weather observations for the past three days for
Henderson-Oxford Airport
Imperial (Metric)
Date Time (edt) Wind (mph) Vis. (mi.) Weather Sky Cond. Temperature (ºF) Relative Humidity Wind Chill (°F) Heat Index (°F) Pressure Precipitation (in)
Air Dwpt 6 hour altimeter (in) sea level (mb) 1 hr 3 hr 6 hr
Max. Min.
02 15:15 NE 6 10.00 Partly Cloudy SCT039 SCT046 55.6 38.3 52% 29.89 0.0
02 14:35 NE 7 10.00 Partly Cloudy SCT035 SCT045 55.2 38.1 53% 29.91 0.0
02 14:15 NE 7 10.00 Partly Cloudy SCT037 55 39.2 55% 29.91 0.0
02 13:55 N 5 10.00 Partly Cloudy SCT030 SCT039 55.4 40.1 55.4 49.6 57% 29.91 0.0
02 13:35 N 7 10.00 Mostly Cloudy BKN028 BKN036 53.6 41.9 65% 29.91 0.0
02 13:15 N 7 10.00 Partly Cloudy SCT028 SCT034 SCT041 54.5 42.1 63% 29.92 0.0
02 12:55 N 6 10.00 Fair CLR 53.4 41.9 65% 29.92 0.0
02 12:35 N 7 10.00 Partly Cloudy SCT029 53.2 41 63% 29.95 0.0
02 12:15 NE 7 10.00 Fair CLR 53.1 41 64% 29.95 0.0
02 11:55 NE 7 10.00 Fair CLR 52.7 40.6 64% 29.95 0.0
02 11:35 NE 7 10.00 Fair CLR 53.2 41 63% 29.94 0.0
02 11:15 NE 5 10.00 Fair CLR 53.1 41.2 64% 29.94 0.0
02 10:55 NE 7 10.00 Fair CLR 53.1 41 64% 29.95 0.0
02 10:35 NE 6 10.00 Fair CLR 53.1 42.1 66% 29.94 0.0
02 10:15 NE 7 10.00 Light Rain CLR 52.3 43 71% 29.94 0.0
02 09:55 NE 5 10.00 Light Drizzle CLR 51.8 43.5 74% 29.94 0.0
02 09:35 NE 5 10.00 Partly Cloudy SCT070 51.8 43.9 75% 29.93 0.0
02 08:55 N 5 10.00 Partly Cloudy SCT070 50.9 43.9 77% 29.93 0.0
02 08:35 N 3 10.00 Mostly Cloudy BKN070 50.4 43.9 79% 29.92 0.0
02 08:15 N 3 10.00 Partly Cloudy SCT070 50 43.9 80% 29.92 0.0
02 07:55 N 5 10.00 Fair CLR 49.6 43.7 50.5 47.3 80% 48 29.92 0.0
02 07:35 N 5 10.00 Fair CLR 49.1 43.7 82% 48 29.92 0.0
02 07:15 N 3 10.00 Fair CLR 49.5 43 78% 29.93 0.0
02 06:55 Calm 10.00 Fair CLR 50 42.8 76% 29.93 0.0
02 06:35 N 5 10.00 Fair CLR 50 42.6 76% 49 29.92 0.0
02 06:15 NW 5 10.00 Fair CLR 50.2 42.4 75% 29.93 0.0
02 05:55 NW 5 10.00 Fair CLR 50.5 42.8 75% 29.92 0.0
02 05:35 NW 6 10.00 Fair CLR 50 43.7 79% 48 29.91 0.0
02 05:15 Calm 10.00 Fair CLR 48.7 45.5 89% 29.91 0.0
02 04:55 W 3 10.00 Fair CLR 48.4 45.9 91% 29.9 0.0
02 04:35 SW 3 10.00 Fair CLR 48.2 45.9 92% 29.89 0.0
02 04:15 SW 3 10.00 Fair CLR 48.4 45.7 90% 29.89 0.0
02 03:55 SW 5 10.00 Fair CLR 48.2 45.7 91% 47 29.89 0.0
02 03:35 SW 3 10.00 Fair CLR 47.7 45.7 93% 29.89 0.0
02 03:15 Calm 10.00 Fair CLR 47.8 45.7 92% 29.89 0.0
02 02:55 Calm 10.00 Fair CLR 47.5 45.9 94% 29.89 0.0
02 02:35 W 3 10.00 Fair CLR 47.7 45.5 92% 29.9 0.0
02 02:15 Calm 10.00 Fair CLR 47.5 45.9 94% 29.91 0.0
02 01:55 Calm 10.00 Fair CLR 47.3 46 52.7 47.3 95% 29.9 0.0
02 01:35 Calm 10.00 Fair CLR 48 45.5 91% 29.9 0.0
02 01:15 Calm 10.00 Fair CLR 47.7 45.3 92% 29.91 0.0
02 00:55 Calm 10.00 Fair CLR 47.5 45.3 92% 29.92 0.0
02 00:35 Calm 10.00 Fair CLR 47.7 45 90% 29.92 0.0
02 00:15 Calm 10.00 Fair CLR 47.5 44.6 90% 29.92 0.0
01 23:55 SW 3 10.00 Fair CLR 47.5 44.4 89% 29.93 0.0
01 23:35 S 3 10.00 Fair CLR 48.2 44.4 87% 29.92 0.0
01 23:15 S 5 10.00 Fair CLR 48.6 44.1 85% 47 29.92 0.0
01 22:55 S 6 10.00 Partly Cloudy SCT001 48.7 43.9 83% 47 29.92 0.0
01 22:35 S 6 10.00 Partly Cloudy SCT001 49.1 43.7 82% 47 29.92 0.0
01 22:15 S 6 10.00 Fair CLR 49.1 43.3 81% 47 29.92 0.0
01 21:55 S 7 10.00 Fair CLR 49.5 43.5 80% 47 29.92 0.0
01 21:35 S 6 10.00 Fair CLR 49.5 43.5 80% 48 29.92 0.0
01 21:15 S 6 10.00 Fair CLR 50 43.3 78% 48 29.92 0.0
01 20:55 S 5 10.00 Fair CLR 50.2 43.3 77% 29.91 0.0
01 20:35 S 5 10.00 Fair CLR 50.9 43 74% 29.91 0.0
01 20:15 S 6 10.00 Fair CLR 51.4 42.8 72% 29.89 0.0
01 19:55 S 7 10.00 Fair CLR 52.7 42.3 65.5 52.7 68% 29.9 0.0
01 19:35 S 7 10.00 Fair CLR 54.1 42.1 64% 29.9 0.0
01 19:15 S 7 10.00 Fair CLR 55.9 41.7 59% 29.9 0.0
01 18:55 S 14 10.00 Fair CLR 57.2 40.8 55% 29.89 0.0
01 18:35 S 12 G 17 10.00 Fair CLR 58.8 41 52% 29.9 0.0
01 18:15 S 12 10.00 Fair CLR 59.7 40.5 49% 29.9 0.0
01 17:55 S 10 G 18 10.00 Fair CLR 63.1 39.4 42% 29.9 0.0
01 17:35 S 8 10.00 Fair CLR 63 39.2 42% 29.9 0.0
01 17:15 S 8 10.00 Fair CLR 63.7 38.8 40% 29.9 0.0
01 16:55 S 9 10.00 Fair CLR 64.2 39.4 40% 29.9 0.0
01 16:35 S 5 10.00 Fair CLR 63.9 38.7 40% 29.9 0.0
01 16:15 S 7 10.00 Fair CLR 65.1 39.2 39% 29.91 0.0
01 15:55 SW 9 10.00 Fair CLR 64.8 38.7 38% 29.91 0.0
01 15:35 S 8 10.00 Fair CLR 63.7 37.8 38% 29.93 0.0
01 15:15 W 3 10.00 Fair CLR 63.5 36.7 37% 29.94 0.0
01 14:55 SW 10 10.00 Fair CLR 64 37.6 38% 29.95 0.0
01 14:35 S 6 10.00 Fair CLR 62.8 36.1 37% 29.96 0.0
01 14:15 Calm 10.00 Fair CLR 62.6 35.2 36% 29.96 0.0
01 13:55 NE 3 10.00 Fair CLR 61.2 35.6 61.7 45.1 39% 29.97 0.0
01 13:35 S 6 10.00 Fair CLR 60.1 35.4 40% 29.97 0.0
01 13:15 N 3 10.00 Fair CLR 59.5 35.1 40% 29.98 0.0
01 12:55 NE 3 10.00 Fair CLR 57.6 34.5 42% 29.99 0.0
01 12:35 Calm 10.00 Fair CLR 56.3 33.1 42% 29.99 0.0
01 12:15 E 3 10.00 Fair CLR 56.7 33.3 41% 30 0.0
01 11:55 SE 5 10.00 Fair CLR 56.3 33.6 42% 30.01 0.0
01 11:35 SE 6 10.00 Fair CLR 57.2 33.4 41% 30.02 0.0
01 11:15 NE 7 10.00 Fair CLR 55.8 32.9 42% 30.02 0.0
01 10:55 E 8 10.00 Fair CLR 55.4 32.4 42% 30.02 0.0
01 10:35 E 8 10.00 Fair CLR 52.5 33.4 48% 30.01 0.0
01 10:15 NE 8 10.00 Fair CLR 51.8 35.1 53% 30.01 0.0
01 09:55 E 9 10.00 Fair CLR 51.8 35.2 53% 30.02 0.0
01 09:35 NE 7 10.00 Fair CLR 51.3 34.9 54% 30.02 0.0
01 09:15 NE 6 10.00 Fair CLR 50.7 34.9 55% 30.02 0.0
01 08:55 E 6 10.00 Fair CLR 49.1 36.7 62% 47 30.02 0.0
01 08:30 NE 3 10.00 Fair CLR 46.9 36.9 68% 30.02 0.0
01 08:15 NE 3 10.00 Fair CLR 46.4 36.7 69% 30.01 0.0
01 07:50 NE 3 10.00 Partly Cloudy SCT100 45.1 37.6 48.2 39.6 75% 30.01 0.0
01 07:35 Calm 10.00 Partly Cloudy SCT100 43.9 37.9 80% 30.01 0.0
01 07:15 Calm 10.00 Fair CLR 41.7 38.3 88% 30.01 0.0
01 06:55 Calm 10.00 Fair CLR 41 36.5 84% 30 0.0
01 06:35 Calm 10.00 Fair CLR 40.3 36.5 86% 30 0.0
01 06:15 Calm 10.00 Partly Cloudy SCT100 39.6 36.1 88% 29.99 0.0
01 05:55 Calm 10.00 Fair CLR 41.5 35.6 80% 29.99 0.0
01 05:35 Calm 10.00 Fair CLR 41.5 35.6 80% 29.99 0.0
01 05:15 Calm 10.00 Fair CLR 42.8 35.1 74% 29.99 0.0
01 04:55 N 3 10.00 Fair CLR 44.2 35.6 72% 29.99 0.0
01 04:35 N 3 10.00 Fair CLR 44.4 35.6 71% 29.99 0.0
01 04:15 N 3 10.00 Fair CLR 44.6 34.9 69% 29.98 0.0
01 03:55 N 3 10.00 Fair CLR 45.1 34.7 67% 29.98 0.0
01 03:35 N 3 10.00 Fair CLR 45.5 35.1 67% 29.98 0.0
01 03:15 N 3 10.00 Fair CLR 46.4 34.7 64% 29.98 0.0
01 02:55 N 3 10.00 Fair CLR 47.1 34.7 62% 29.98 0.0
01 02:35 N 5 10.00 Fair CLR 47.5 34.3 60% 46 29.98 0.0
01 02:15 NE 5 10.00 Fair CLR 47.7 34.3 60% 46 29.97 0.0
01 01:55 N 3 10.00 Fair CLR 48.2 34.3 62.1 48.2 59% 29.97 0.0
01 01:35 NE 5 10.00 Fair CLR 49.1 33.8 56% 48 29.97 0.0
01 01:15 N 3 10.00 Fair CLR 49.8 33.4 53% 29.97 0.0
01 00:55 N 3 10.00 Fair CLR 49.6 33.3 53% 29.96 0.0
01 00:35 N 3 10.00 Fair CLR 49.1 33.8 56% 29.94 0.0
01 00:15 Calm 10.00 Fair CLR 50.7 32.9 51% 29.94 0.0
30 23:55 N 3 10.00 Fair CLR 52 33.1 49% 29.93 0.0
30 23:35 N 3 10.00 Fair CLR 53.6 32.4 45% 29.92 0.0
30 23:15 N 6 10.00 Fair CLR 54.1 32 43% 29.91 0.0
30 22:55 N 8 10.00 Fair CLR 54.7 32.4 43% 29.91 0.0
30 22:35 N 7 10.00 Fair CLR 55.4 32 41% 29.91 0.0
30 22:15 N 3 10.00 Fair CLR 55.9 32.5 41% 29.91 0.0
30 21:55 N 5 10.00 Fair CLR 56.7 33.3 41% 29.9 0.0
30 21:35 N 5 10.00 Fair CLR 57.2 34 42% 29.89 0.0
30 21:15 N 3 10.00 Fair CLR 57.9 35.1 42% 29.88 0.0
30 20:55 Calm 10.00 Fair CLR 59 34.9 41% 29.87 0.0
30 20:35 N 6 10.00 Fair CLR 59.5 36.1 42% 29.86 0.0
30 20:15 N 3 10.00 Fair CLR 61 36.5 40% 29.85 0.0
30 19:35 Calm 10.00 Fair CLR 63.9 36.5 36% 29.84 0.0
30 19:15 NW 5 10.00 Fair CLR 65.5 36.1 34% 29.82 0.0
30 18:55 NW 5 10.00 Fair CLR 67.1 35.2 31% 29.82 0.0
30 18:35 NW 6 10.00 Fair CLR 67.5 36 31% 29.81 0.0
30 18:15 N 8 10.00 Fair CLR 68 35.1 30% 29.81 0.0
30 17:55 NW 8 10.00 Fair CLR 68.7 36.5 31% 29.81 0.0
30 17:35 N 9 10.00 Fair CLR 69.1 36.7 31% 29.81 0.0
30 17:15 N 7 10.00 Fair CLR 69.4 37.4 31% 29.8 0.0
30 16:55 N 9 10.00 Fair CLR 68.4 39.6 35% 29.81 0.0
30 16:35 NW 6 10.00 Fair CLR 67.1 39.2 36% 29.81 0.0
30 16:15 NW 6 G 31 10.00 Partly Cloudy SCT065 68 41 38% 29.81 0.0
30 15:55 NW 10 10.00 Fair CLR 68.2 40.6 37% 29.81 0.0
30 15:35 W 6 10.00 Fair CLR 69.1 41.2 36% 29.81 0.0
30 15:15 NW 7 10.00 Fair CLR 69.6 42.4 37% 29.81 0.0
30 14:55 NW 8 10.00 Fair CLR 68 42.1 39% 29.81 0.0
30 14:35 NW 8 10.00 Fair CLR 68.4 43.5 41% 29.81 0.0
30 14:15 N 10 G 17 10.00 Fair CLR 67.5 44.2 43% 29.81 0.0
30 13:55 N 6 10.00 Fair CLR 65.8 44.2 66.9 53.1 46% 29.81 0.0 0.01
30 13:35 NW 7 10.00 Fair CLR 66.6 44.8 46% 29.82 0.0
30 13:15 NW 9 10.00 Partly Cloudy SCT043 65.8 46 49% 29.83 0.0
30 12:55 NW 6 10.00 Fair CLR 65.1 47.7 53% 29.84 0.0
30 12:35 NW 8 10.00 Fair CLR 62.1 47.7 59% 29.85 0.0
30 12:15 NW 7 10.00 Fair CLR 59.9 47.1 63% 29.85 0.0
30 11:55 NW 5 10.00 Fair CLR 58.8 48.2 68% 29.84 0.0
30 11:35 NW 10 G 17 10.00 Fair CLR 57.4 48.4 72% 29.84 0.0
30 11:15 NW 8 10.00 Fair CLR 57.4 49.1 74% 29.85 0.0
30 10:55 NW 8 10.00 Fair CLR 56.5 48.7 75% 29.84 0.0 0.01
30 10:35 NW 8 10.00 Fair CLR 56.3 49.3 77% 29.84 0.0
30 10:15 NW 7 10.00 Fair CLR 55.9 49.1 78% 29.84 0.0
30 09:55 NW 7 10.00 Fair CLR 55.8 48.7 77% 29.84 0.0
30 09:35 NW 6 10.00 Fair CLR 55.8 48 75% 29.85 0.0
30 09:15 NW 8 10.00 Fair CLR 55.6 48 76% 29.85 0.0
30 08:55 NW 7 10.00 Fair CLR 54.9 48.2 78% 29.84 0.0 0.01
30 08:35 W 6 10.00 Fair CLR 54.1 48.9 83% 29.84 0.0
30 08:15 W 6 10.00 Fair CLR 53.1 49.5 88% 29.84 0.0
30 07:55 W 3 10.00 Fair CLR 53.1 49.5 58.1 51.8 88% 29.82 0.0
30 07:35 W 3 10.00 Fair CLR 53.1 49.3 87% 29.81 0.0
30 07:15 W 3 10.00 Fair CLR 53.6 48.9 84% 29.81 0.0
30 06:55 NW 6 10.00 Fair CLR 52.7 49.6 89% 29.81 0.0
30 06:35 Calm 10.00 Fair CLR 52 50.9 96% 29.82 0.0
30 06:15 W 5 10.00 Fair CLR 52 51.4 98% 29.81 0.0
30 05:55 Calm 10.00 Fair CLR 52.7 50.9 94% 29.8 0.0
30 05:35 W 3 10.00 Fair CLR 53.6 50.5 89% 29.81 0.0
30 05:15 Calm 10.00 Fair CLR 54.7 50.9 87% 29.8 0.0
30 04:55 Calm 10.00 Fair CLR 55.2 51.8 88% 29.79 0.0
30 04:35 NW 3 10.00 Fair CLR 55.8 52.9 90% 29.79 0.0
30 04:15 NW 3 10.00 Fair CLR 55.9 53.8 93% 29.79 0.0
30 03:55 W 3 10.00 Fair CLR 55 54.7 99% 29.79 0.0
30 03:35 Calm 10.00 Fair CLR 56.7 53.8 90% 29.78 0.0
30 03:15 Calm 10.00 Fair CLR 57.7 53.1 85% 29.79 0.0
30 02:55 Calm 10.00 Fair CLR 57.2 55 93% 29.79 0.0
30 02:35 W 5 10.00 Fair CLR 58.1 55.6 91% 29.8 0.0
30 02:15 Calm 10.00 Fair CLR 57.4 57.2 99% 29.79 0.0
30 01:55 W 3 10.00 Fair CLR 57.2 57 99% 29.8 0.0
30 01:35 SW 3 10.00 Fair CLR 56.8 56.7 99% 29.8 0.0
30 01:15 Calm 10.00 Fair CLR 57.7 57.6 99% 29.79 0.0
30 00:55 Calm 10.00 Partly Cloudy SCT090 58.1 57.7 99% 29.8 0.0
30 00:35 W 3 10.00 Partly Cloudy SCT090 58.3 58.1 99% 29.8 0.0
30 00:15 Calm 10.00 Partly Cloudy SCT080 58.5 58.3 99% 29.8 0.0
29 23:55 S 3 10.00 Mostly Cloudy SCT065 BKN080 58.6 58.3 99% 29.8 0.0 0.01
29 23:35 Calm 10.00 Overcast OVC065 59.2 59 99% 29.8 0.0 0.01
29 23:15 SW 5 10.00 Mostly Cloudy BKN065 59.4 59.2 99% 29.81 0.0 0.01
29 22:55 NW 5 7.00 Light Rain NULL 59.2 59 99% 29.81 0.0
29 22:35 W 9 0.00 NULL NULL 0 0 0% 29.82 0.0
29 22:15 NW 14 G 21 10.00 Partly Cloudy SCT041 SCT050 SCT080 60.4 59.9 98% 29.8 0.0
29 21:55 Calm 10.00 Partly Cloudy SCT055 SCT080 60.6 59.5 96% 29.77 0.0
29 21:35 Calm 10.00 Fair CLR 60.1 59.9 99% 29.77 0.0
29 21:15 Calm 10.00 Fair CLR 60.3 59.9 99% 29.77 0.0
29 20:55 Calm 5.00 Fog/Mist CLR 61 60.1 97% 29.78 0.0
29 20:35 Calm 10.00 Fair CLR 61.9 59 90% 29.77 0.0
29 20:15 Calm 10.00 Fair CLR 63.7 58.8 84% 29.77 0.0
29 19:55 Calm 10.00 Fair CLR 64.8 59 67.5 61.7 82% 29.77 0.0
29 19:35 Calm 10.00 Fair CLR 65.5 58.6 79% 29.77 0.0
29 19:15 Calm 10.00 Fair CLR 65.5 58.6 79% 29.77 0.0
29 18:55 S 3 10.00 Fair CLR 66.2 58.5 76% 29.76 0.0
29 18:15 SW 5 10.00 Mostly Cloudy BKN025 67.1 58.5 74% 29.78 0.0
29 17:55 SW 3 10.00 Mostly Cloudy SCT016 BKN025 65.8 58.1 76% 29.79 0.0
29 17:35 SW 5 10.00 Mostly Cloudy BKN015 BKN021 65.1 58.3 79% 29.79 0.0
29 17:15 S 7 10.00 Overcast OVC013 66 58.1 76% 29.78 0.0
29 16:55 S 5 10.00 Overcast OVC013 64.4 58.3 81% 29.79 0.0
29 16:35 S 5 10.00 Overcast BKN009 OVC014 63 58.8 86% 29.8 0.0
29 16:15 S 5 5.00 Fog/Mist OVC011 62.1 59 90% 29.82 0.0
29 15:55 S 6 7.00 Overcast SCT005 OVC011 61.9 58.6 89% 29.82 0.0
29 15:35 S 5 4.00 Fog/Mist BKN008 OVC012 62.1 58.8 89% 29.84 0.0
Date Time (edt) Wind (mph) Vis. (mi.) Weather Sky Cond. Air Dwpt Max. Min. Relative Humidity Wind Chill (°F) Heat Index (°F) altimeter (in) sea level (mb) 1 hr 3 hr 6 hr
6 hour
Temperature (ºF) Pressure Precipitation (in)